Time;durP1;ratioP1;P1;durP2;ratioP2;P2;SDS_P1;SDS_P2;PMS_P1;PMS_P2;Temp;Humidity;BMP_temperature;BMP_pressure;BME280_temperature;BME280_humidity;BME280_pressure;Samples;Min_cycle;Max_cycle;Signal;HPM_P1;HPM_P2
2021/11/08 00:02:16;;;;;;;;;;;;;;;;;;5019666;28;20294;-85
2021/11/08 00:04:42;;;;;;;;;;;;;;;;;;5052645;28;19925;-85
2021/11/08 00:07:07;;;;;;;;;;;;;;;;;;5052683;28;19916;-84
2021/11/08 00:09:33;;;;;;;;;;;;;;;;;;5052062;28;19917;-85
2021/11/08 00:11:59;;;;;;;;;;;;;;;;;;5052077;28;19913;-84
2021/11/08 00:14:24;;;;;;;;;;;;;;;;;;5019415;28;19913;-85
2021/11/08 00:22:05;;;;;;;;;;;;;;;;;;5052458;28;19924;-85
2021/11/08 00:24:32;;;;;;;;;;;;;;;;;;5035543;28;19919;-85
2021/11/08 00:26:59;;;;;;;;;;;;;;;;;;5019013;28;19920;-85
2021/11/08 00:29:25;;;;;;;;;;;;;;;;;;5018874;28;19962;-84
2021/11/08 00:31:51;;;;;;;;;;;;;;;;;;5052013;28;20013;-85
2021/11/08 00:34:17;;;;;;;;;;;;;;;;;;5052121;28;20401;-85
2021/11/08 00:36:43;;;;;;;;;;;;;;;;;;5035294;28;19917;-85
2021/11/08 00:39:10;;;;;;;;;;;;;;;;;;5048105;28;19917;-84
2021/11/08 00:41:37;;;;;;;;;;;;;;;;;;5015869;28;20008;-85
2021/11/08 00:44:03;;;;;;;;;;;;;;;;;;5015538;28;19940;-85
2021/11/08 00:46:28;;;;;;;;;;;;;;;;;;5025033;28;19918;-85
2021/11/08 00:48:54;;;;;;;;;;;;;;;;;;5015260;28;19935;-85
2021/11/08 00:51:19;;;;;;;;;;;;;;;;;;5015255;28;19921;-84
2021/11/08 00:53:46;;;;;;;;;;;;;;;;;;5015030;28;20417;-85
2021/11/08 00:56:16;;;;;;;;;;;;;;;;;;5015175;28;19979;-84
2021/11/08 00:58:43;;;;;;;;;;;;;;;;;;5034346;28;19917;-84
2021/11/08 01:01:10;;;;;;;;;;;;;;;;;;5018844;28;19917;-85
2021/11/08 01:03:38;;;;;;;;;;;;;;;;;;5018430;28;19995;-85
2021/11/08 01:06:05;;;;;;;;;;;;;;;;;;5018427;28;19995;-84
2021/11/08 01:08:31;;;;;;;;;;;;;;;;;;5018249;28;19916;-85
2021/11/08 01:10:56;;;;;;;;;;;;;;;;;;5017884;28;19962;-84
2021/11/08 01:13:24;;;;;;;;;;;;;;;;;;5050623;28;19913;-85
2021/11/08 01:15:49;;;;;;;;;;;;;;;;;;5050834;28;19968;-84
2021/11/08 01:18:17;;;;;;;;;;;;;;;;;;5051217;28;19952;-85
2021/11/08 01:20:47;;;;;;;;;;;;;;;;;;5050920;28;20391;-85
2021/11/08 01:23:13;;;;;;;;;;;;;;;;;;5034873;28;19921;-85
2021/11/08 01:25:39;;;;;;;;;;;;;;;;;;5051261;28;19912;-84
2021/11/08 01:28:06;;;;;;;;;;;;;;;;;;5050742;28;20372;-85
2021/11/08 01:30:33;;;;;;;;;;;;;;;;;;5050974;28;19956;-85
2021/11/08 01:33:14;;;;;;;;;;;;;;;;;;5049992;28;19962;-85
2021/11/08 01:35:45;;;;;;;;;;;;;;;;;;5016942;28;20437;-85
2021/11/08 01:40:42;;;;;;;;;;;;;;;;;;5031269;28;19917;-85
2021/11/08 01:43:08;;;;;;;;;;;;;;;;;;5030923;28;19925;-85
2021/11/08 01:45:34;;;;;;;;;;;;;;;;;;5016691;28;20390;-85
2021/11/08 01:48:00;;;;;;;;;;;;;;;;;;5017336;28;19997;-85
2021/11/08 01:50:27;;;;;;;;;;;;;;;;;;5029511;28;19952;-85
2021/11/08 01:52:53;;;;;;;;;;;;;;;;;;5019873;28;20030;-84
2021/11/08 01:55:23;;;;;;;;;;;;;;;;;;5014747;28;19951;-85
2021/11/08 01:57:49;;;;;;;;;;;;;;;;;;5013816;28;19925;-84
2021/11/08 02:00:15;;;;;;;;;;;;;;;;;;5047374;28;19913;-85
2021/11/08 02:02:40;;;;;;;;;;;;;;;;;;5047807;28;19920;-85
2021/11/08 02:05:06;;;;;;;;;;;;;;;;;;5045868;28;20022;-85
2021/11/08 02:07:33;;;;;;;;;;;;;;;;;;5014517;28;19920;-85
2021/11/08 02:09:59;;;;;;;;;;;;;;;;;;5014233;28;20393;-84
2021/11/08 02:12:25;;;;;;;;;;;;;;;;;;5016871;28;19917;-85
2021/11/08 02:14:52;;;;;;;;;;;;;;;;;;5034172;28;19913;-85
2021/11/08 02:17:17;;;;;;;;;;;;;;;;;;5034144;28;19920;-85
2021/11/08 02:19:42;;;;;;;;;;;;;;;;;;5033645;28;19921;-84
2021/11/08 02:22:08;;;;;;;;;;;;;;;;;;5033703;28;19917;-85
2021/11/08 02:24:35;;;;;;;;;;;;;;;;;;5034064;28;19960;-88
2021/11/08 02:27:01;;;;;;;;;;;;;;;;;;5037245;28;19913;-87
2021/11/08 02:29:27;;;;;;;;;;;;;;;;;;5050211;28;19952;-84
2021/11/08 02:31:53;;;;;;;;;;;;;;;;;;5001660;28;19971;-86
2021/11/08 02:34:19;;;;;;;;;;;;;;;;;;5011839;28;19917;-84
2021/11/08 02:36:44;;;;;;;;;;;;;;;;;;5037684;28;19913;-86
2021/11/08 02:39:13;;;;;;;;;;;;;;;;;;5037185;28;19916;-83
2021/11/08 02:41:39;;;;;;;;;;;;;;;;;;5037580;28;19913;-85
2021/11/08 02:44:05;;;;;;;;;;;;;;;;;;5037297;28;19913;-85
2021/11/08 02:46:37;;;;;;;;;;;;;;;;;;5037446;28;19912;-83
2021/11/08 02:49:05;;;;;;;;;;;;;;;;;;5037922;28;20275;-84
2021/11/08 02:51:30;;;;;;;;;;;;;;;;;;5037690;28;19987;-83
2021/11/08 02:54:01;;;;;;;;;;;;;;;;;;5020705;28;20401;-84
2021/11/08 02:56:26;;;;;;;;;;;;;;;;;;5021160;28;19917;-83
2021/11/08 02:58:53;;;;;;;;;;;;;;;;;;5020429;28;19978;-83
2021/11/08 03:01:19;;;;;;;;;;;;;;;;;;5037509;28;20070;-83
2021/11/08 03:03:51;;;;;;;;;;;;;;;;;;5036883;28;20338;-84
2021/11/08 03:06:27;;;;;;;;;;;;;;;;;;5021767;28;19924;-83
2021/11/08 03:08:54;;;;;;;;;;;;;;;;;;5053504;28;20019;-83
2021/11/08 03:11:20;;;;;;;;;;;;;;;;;;5053327;28;20381;-82
2021/11/08 03:13:55;;;;;;;;;;;;;;;;;;5053505;28;19920;-83
2021/11/08 03:18:55;;;;;;;;;;;;;;;;;;5053300;28;19968;-84
2021/11/08 03:21:21;;;;;;;;;;;;;;;;;;5019203;28;19920;-84
2021/11/08 03:23:49;;;;;;;;;;;;;;;;;;5016671;28;19928;-84
2021/11/08 03:29:19;;;;;;;;;;;;;;;;;;5020752;28;19917;-83
2021/11/08 03:31:47;;;;;;;;;;;;;;;;;;5015689;28;20007;-83
2021/11/08 03:34:13;;;;;;;;;;;;;;;;;;5016219;28;19920;-84
2021/11/08 03:36:38;;;;;;;;;;;;;;;;;;5016607;28;20060;-83
2021/11/08 03:39:04;;;;;;;;;;;;;;;;;;5016404;28;20399;-83
2021/11/08 03:41:29;;;;;;;;;;;;;;;;;;5016641;28;19919;-83
2021/11/08 03:43:55;;;;;;;;;;;;;;;;;;5033176;28;20280;-83
2021/11/08 03:46:20;;;;;;;;;;;;;;;;;;5019868;28;19951;-84
2021/11/08 03:48:45;;;;;;;;;;;;;;;;;;5019314;28;19924;-83
2021/11/08 03:51:11;;;;;;;;;;;;;;;;;;5052838;28;19956;-84
2021/11/08 03:53:36;;;;;;;;;;;;;;;;;;5053039;28;19917;-83
2021/11/08 03:56:02;;;;;;;;;;;;;;;;;;5052468;28;20388;-83
2021/11/08 03:58:27;;;;;;;;;;;;;;;;;;5035790;28;19923;-83
2021/11/08 04:00:52;;;;;;;;;;;;;;;;;;5036104;28;19923;-83
2021/11/08 04:03:18;;;;;;;;;;;;;;;;;;5035579;28;19927;-83
2021/11/08 04:05:43;;;;;;;;;;;;;;;;;;5019553;28;19919;-84
2021/11/08 04:08:11;;;;;;;;;;;;;;;;;;5052641;28;19913;-83
2021/11/08 04:10:37;;;;;;;;;;;;;;;;;;5035912;28;19917;-83
2021/11/08 04:13:06;;;;;;;;;;;;;;;;;;5019248;28;19917;-83
2021/11/08 04:15:37;;;;;;;;;;;;;;;;;;5050236;28;19913;-83
2021/11/08 04:18:04;;;;;;;;;;;;;;;;;;5016209;28;19913;-83
2021/11/08 04:20:29;;;;;;;;;;;;;;;;;;5032206;28;19917;-83
2021/11/08 04:22:54;;;;;;;;;;;;;;;;;;5015722;28;20011;-83
2021/11/08 04:25:22;;;;;;;;;;;;;;;;;;5015887;28;20365;-83
2021/11/08 04:27:47;;;;;;;;;;;;;;;;;;5031780;28;19940;-83
2021/11/08 04:30:13;;;;;;;;;;;;;;;;;;5032164;28;20355;-83
2021/11/08 04:32:47;;;;;;;;;;;;;;;;;;5032308;28;19917;-84
2021/11/08 04:35:17;;;;;;;;;;;;;;;;;;5016963;28;19917;-83
2021/11/08 04:51:20;;;;;;;;;;;;;;;;;;5051335;28;19966;-83
2021/11/08 04:54:00;;;;;;;;;;;;;;;;;;5020802;28;19917;-84
2021/11/08 05:31:40;;;;;;;;;;;;;;;;;;5050910;28;20255;-83
2021/11/08 05:34:06;;;;;;;;;;;;;;;;;;5050770;28;20325;-84
2021/11/08 05:36:31;;;;;;;;;;;;;;;;;;5050913;28;19963;-83
2021/11/08 05:38:57;;;;;;;;;;;;;;;;;;5051036;28;19923;-83
2021/11/08 05:41:23;;;;;;;;;;;;;;;;;;5029147;28;19925;-83
2021/11/08 05:43:48;;;;;;;;;;;;;;;;;;5012447;28;19967;-82
2021/11/08 05:46:14;;;;;;;;;;;;;;;;;;5024126;28;19919;-83
2021/11/08 05:48:40;;;;;;;;;;;;;;;;;;5049535;28;20139;-81
2021/11/08 05:51:08;;;;;;;;;;;;;;;;;;5033979;28;19920;-80
2021/11/08 05:53:33;;;;;;;;;;;;;;;;;;5017861;28;19948;-80
2021/11/08 05:59:17;;;;;;;;;;;;;;;;;;5035861;28;20375;-82
2021/11/08 06:51:12;;;;;;;;;;;;;;;;;;5038240;28;19928;-81
2021/11/08 06:53:38;;;;;;;;;;;;;;;;;;5024014;28;19962;-80
2021/11/08 06:56:04;;;;;;;;;;;;;;;;;;5053097;28;20011;-80
2021/11/08 06:58:30;;;;;;;;;;;;;;;;;;5053194;28;19924;-82
2021/11/08 07:00:55;;;;;;;;;;;;;;;;;;5037287;28;20302;-82
2021/11/08 07:03:21;;;;;;;;;;;;;;;;;;5037330;28;19963;-82
2021/11/08 07:05:47;;;;;;;;;;;;;;;;;;5037192;28;20532;-83
2021/11/08 07:08:12;;;;;;;;;;;;;;;;;;5053491;28;20282;-82
2021/11/08 07:10:38;;;;;;;;;;;;;;;;;;5052990;28;20011;-81
2021/11/08 07:13:03;;;;;;;;;;;;;;;;;;5053041;28;20000;-81
2021/11/08 07:15:29;;;;;;;;;;;;;;;;;;5053653;28;20302;-81
2021/11/08 07:17:54;;;;;;;;;;;;;;;;;;5053208;28;20008;-81
2021/11/08 07:20:19;;;;;;;;;;;;;;;;;;5053427;28;20294;-81
2021/11/08 07:22:45;;;;;;;;;;;;;;;;;;5053617;28;19991;-81
2021/11/08 07:25:10;;;;;;;;;;;;;;;;;;5053408;28;19966;-81
2021/11/08 07:27:36;;;;;;;;;;;;;;;;;;5052951;28;20011;-81
2021/11/08 07:30:01;;;;;;;;;;;;;;;;;;5053612;28;19912;-81
2021/11/08 07:32:26;;;;;;;;;;;;;;;;;;5036763;28;19917;-81
2021/11/08 07:34:52;;;;;;;;;;;;;;;;;;5053542;28;20386;-81
2021/11/08 07:37:17;;;;;;;;;;;;;;;;;;5052952;28;19912;-81
2021/11/08 07:39:43;;;;;;;;;;;;;;;;;;5053307;28;19997;-80
2021/11/08 07:42:08;;;;;;;;;;;;;;;;;;5052587;28;19916;-81
2021/11/08 07:44:34;;;;;;;;;;;;;;;;;;5036612;28;19913;-81
2021/11/08 07:46:59;;;;;;;;;;;;;;;;;;5019970;28;19951;-81
2021/11/08 07:49:24;;;;;;;;;;;;;;;;;;5036555;28;19917;-81
2021/11/08 07:51:50;;;;;;;;;;;;;;;;;;5036261;28;19921;-81
2021/11/08 07:54:15;;;;;;;;;;;;;;;;;;5052589;28;20367;-81
2021/11/08 07:56:41;;;;;;;;;;;;;;;;;;5019206;28;19998;-81
2021/11/08 07:59:06;;;;;;;;;;;;;;;;;;5019649;28;19986;-81
2021/11/08 08:01:31;;;;;;;;;;;;;;;;;;5019599;28;19913;-80
2021/11/08 08:03:56;;;;;;;;;;;;;;;;;;5019738;28;19924;-81
2021/11/08 08:06:22;;;;;;;;;;;;;;;;;;5019626;28;20012;-81
2021/11/08 08:08:50;;;;;;;;;;;;;;;;;;5035956;28;19917;-81
2021/11/08 08:11:15;;;;;;;;;;;;;;;;;;5019605;28;19959;-81
2021/11/08 08:13:41;;;;;;;;;;;;;;;;;;5035930;28;19917;-81
2021/11/08 08:16:08;;;;;;;;;;;;;;;;;;5036391;28;19960;-81
2021/11/08 08:18:33;;;;;;;;;;;;;;;;;;5019401;28;19963;-82
2021/11/08 08:20:59;;;;;;;;;;;;;;;;;;5035638;28;19913;-81
2021/11/08 08:23:24;;;;;;;;;;;;;;;;;;5051146;28;19992;-82
2021/11/08 08:25:50;;;;;;;;;;;;;;;;;;5019241;28;20020;-81
2021/11/08 08:28:15;;;;;;;;;;;;;;;;;;5035265;28;19999;-82
2021/11/08 08:30:41;;;;;;;;;;;;;;;;;;5035506;28;20283;-81
2021/11/08 08:33:06;;;;;;;;;;;;;;;;;;5035754;28;19995;-82
2021/11/08 08:35:36;;;;;;;;;;;;;;;;;;5018805;28;19951;-82
2021/11/08 08:38:02;;;;;;;;;;;;;;;;;;5051611;28;19913;-81
2021/11/08 08:40:27;;;;;;;;;;;;;;;;;;5035446;28;19920;-82
2021/11/08 08:42:53;;;;;;;;;;;;;;;;;;5036915;28;19917;-82
2021/11/08 08:45:18;;;;;;;;;;;;;;;;;;5051739;28;19964;-81
2021/11/08 08:47:43;;;;;;;;;;;;;;;;;;5018856;28;19920;-81
2021/11/08 08:50:09;;;;;;;;;;;;;;;;;;5035129;28;19981;-82
2021/11/08 08:52:34;;;;;;;;;;;;;;;;;;5034647;28;20432;-81
2021/11/08 08:54:59;;;;;;;;;;;;;;;;;;5035471;28;19913;-82
2021/11/08 08:57:25;;;;;;;;;;;;;;;;;;5051214;28;20387;-82
2021/11/08 08:59:50;;;;;;;;;;;;;;;;;;5035473;28;19919;-81
2021/11/08 09:02:16;;;;;;;;;;;;;;;;;;5018780;28;19913;-81
2021/11/08 09:04:41;;;;;;;;;;;;;;;;;;5018679;28;20279;-81
2021/11/08 09:07:07;;;;;;;;;;;;;;;;;;5017929;28;19971;-82
2021/11/08 09:09:32;;;;;;;;;;;;;;;;;;5034535;28;19966;-82
2021/11/08 09:11:58;;;;;;;;;;;;;;;;;;5051473;28;19948;-81
2021/11/08 09:14:25;;;;;;;;;;;;;;;;;;5051546;28;20322;-81
2021/11/08 09:16:50;;;;;;;;;;;;;;;;;;5034738;28;19913;-81
2021/11/08 09:19:16;;;;;;;;;;;;;;;;;;5018043;28;19916;-81
2021/11/08 09:21:41;;;;;;;;;;;;;;;;;;5051246;28;19916;-82
2021/11/08 09:24:07;;;;;;;;;;;;;;;;;;5034506;28;20275;-81
2021/11/08 09:26:33;;;;;;;;;;;;;;;;;;5034031;28;19920;-81
2021/11/08 09:28:58;;;;;;;;;;;;;;;;;;5034570;28;19981;-81
2021/11/08 09:31:24;;;;;;;;;;;;;;;;;;5034301;28;20383;-81
2021/11/08 09:33:50;;;;;;;;;;;;;;;;;;5017671;28;19913;-81
2021/11/08 09:36:15;;;;;;;;;;;;;;;;;;5034038;28;20366;-81
2021/11/08 09:38:49;;;;;;;;;;;;;;;;;;5034636;28;19920;-81
2021/11/08 09:41:15;;;;;;;;;;;;;;;;;;5050684;28;20267;-81
2021/11/08 09:43:40;;;;;;;;;;;;;;;;;;5050940;28;19913;-81
2021/11/08 09:46:05;;;;;;;;;;;;;;;;;;5018000;28;19917;-82
2021/11/08 09:48:31;;;;;;;;;;;;;;;;;;5017952;28;19919;-82
2021/11/08 09:50:57;;;;;;;;;;;;;;;;;;5034872;28;19920;-81
2021/11/08 09:53:22;;;;;;;;;;;;;;;;;;5053973;28;19920;-81
2021/11/08 09:55:48;;;;;;;;;;;;;;;;;;5070903;28;20428;-81
2021/11/08 09:58:13;;;;;;;;;;;;;;;;;;5039122;28;19916;-81
2021/11/08 10:00:38;;;;;;;;;;;;;;;;;;5017761;28;19924;-81
2021/11/08 10:03:04;;;;;;;;;;;;;;;;;;5050744;28;20417;-81
2021/11/08 10:05:33;;;;;;;;;;;;;;;;;;5033469;28;19912;-81
2021/11/08 10:07:59;;;;;;;;;;;;;;;;;;5017566;28;19921;-81
2021/11/08 10:10:25;;;;;;;;;;;;;;;;;;5017437;28;19958;-80
2021/11/08 10:13:04;;;;;;;;;;;;;;;;;;5033634;28;19913;-81
2021/11/08 10:15:29;;;;;;;;;;;;;;;;;;5017657;28;19920;-81
2021/11/08 10:17:54;;;;;;;;;;;;;;;;;;5017694;28;19913;-82
2021/11/08 10:20:30;;;;;;;;;;;;;;;;;;5017204;28;20397;-81
2021/11/08 10:22:55;;;;;;;;;;;;;;;;;;5050796;28;19917;-82
2021/11/08 10:25:21;;;;;;;;;;;;;;;;;;5034400;28;19920;-81
2021/11/08 10:27:46;;;;;;;;;;;;;;;;;;5033916;28;20360;-80
2021/11/08 10:30:45;;;;;;;;;;;;;;;;;;5034092;28;20378;-81
2021/11/08 10:33:14;;;;;;;;;;;;;;;;;;5022170;28;19920;-81
2021/11/08 10:35:50;;;;;;;;;;;;;;;;;;5050464;28;19912;-80
2021/11/08 10:38:19;;;;;;;;;;;;;;;;;;5034117;28;19920;-81
2021/11/08 10:40:46;;;;;;;;;;;;;;;;;;5017110;28;19912;-81
2021/11/08 10:43:12;;;;;;;;;;;;;;;;;;5017049;28;19920;-81
2021/11/08 10:45:48;;;;;;;;;;;;;;;;;;5050258;28;19917;-80
2021/11/08 10:48:17;;;;;;;;;;;;;;;;;;5037063;28;20485;-80
2021/11/08 10:50:44;;;;;;;;;;;;;;;;;;5037346;28;20031;-81
2021/11/08 10:53:09;;;;;;;;;;;;;;;;;;5037848;28;20472;-80
2021/11/08 10:55:34;;;;;;;;;;;;;;;;;;5054164;28;20264;-80
2021/11/08 10:58:07;;;;;;;;;;;;;;;;;;5036668;28;19913;-81
2021/11/08 11:00:32;;;;;;;;;;;;;;;;;;5037410;28;19919;-80
2021/11/08 11:02:57;;;;;;;;;;;;;;;;;;5054147;28;19917;-81
2021/11/08 11:05:23;;;;;;;;;;;;;;;;;;5020747;28;19917;-80
2021/11/08 11:07:48;;;;;;;;;;;;;;;;;;5020294;28;20268;-80
2021/11/08 11:10:15;;;;;;;;;;;;;;;;;;5053110;28;20375;-81
2021/11/08 11:12:42;;;;;;;;;;;;;;;;;;5053299;28;19912;-80
2021/11/08 11:15:09;;;;;;;;;;;;;;;;;;5053754;28;19916;-80
2021/11/08 11:17:58;;;;;;;;;;;;;;;;;;5053461;28;19912;-80
2021/11/08 11:20:25;;;;;;;;;;;;;;;;;;5053243;28;19932;-81
2021/11/08 11:23:04;;;;;;;;;;;;;;;;;;5053564;28;19917;-80
2021/11/08 11:25:31;;;;;;;;;;;;;;;;;;5053638;28;19913;-81
2021/11/08 11:28:00;;;;;;;;;;;;;;;;;;5053192;28;20207;-81
2021/11/08 11:30:26;;;;;;;;;;;;;;;;;;5036583;28;19913;-80
2021/11/08 11:32:56;;;;;;;;;;;;;;;;;;5036295;28;20034;-80
2021/11/08 11:35:21;;;;;;;;;;;;;;;;;;5053256;28;19951;-81
2021/11/08 11:37:59;;;;;;;;;;;;;;;;;;5035581;28;19916;-81
2021/11/08 11:40:25;;;;;;;;;;;;;;;;;;5051859;28;19913;-81
2021/11/08 11:42:54;;;;;;;;;;;;;;;;;;5052341;28;20362;-81
2021/11/08 11:45:19;;;;;;;;;;;;;;;;;;5052941;28;19912;-81
2021/11/08 11:48:03;;;;;;;;;;;;;;;;;;5036653;28;19920;-81
2021/11/08 11:50:33;;;;;;;;;;;;;;;;;;5051154;28;19925;-81
2021/11/08 11:52:58;;;;;;;;;;;;;;;;;;5030532;28;19921;-82
2021/11/08 11:55:24;;;;;;;;;;;;;;;;;;5033079;28;19923;-81
2021/11/08 11:57:49;;;;;;;;;;;;;;;;;;5035536;28;19913;-81
2021/11/08 12:00:15;;;;;;;;;;;;;;;;;;5036185;28;19958;-81
2021/11/08 12:02:40;;;;;;;;;;;;;;;;;;5015682;28;19917;-81
2021/11/08 12:05:06;;;;;;;;;;;;;;;;;;5052575;28;20412;-81
2021/11/08 12:07:32;;;;;;;;;;;;;;;;;;5035988;28;19919;-81
2021/11/08 12:09:58;;;;;;;;;;;;;;;;;;5052520;28;19920;-80
2021/11/08 12:12:24;;;;;;;;;;;;;;;;;;5032120;28;19921;-80
2021/11/08 12:15:06;;;;;;;;;;;;;;;;;;5015669;28;19913;-80
2021/11/08 12:17:35;;;;;;;;;;;;;;;;;;5017034;28;20290;-80
2021/11/08 12:20:07;;;;;;;;;;;;;;;;;;5015663;28;19917;-80
2021/11/08 12:22:33;;;;;;;;;;;;;;;;;;5019207;28;20409;-80
2021/11/08 12:24:59;;;;;;;;;;;;;;;;;;5051973;28;19925;-81
2021/11/08 12:27:51;;;;;;;;;;;;;;;;;;5031258;28;19919;-81
2021/11/08 12:30:17;;;;;;;;;;;;;;;;;;5050240;28;19920;-80
2021/11/08 12:33:02;;;;;;;;;;;;;;;;;;5040091;28;19923;-80
2021/11/08 12:35:33;;;;;;;;;;;;;;;;;;5014207;28;20016;-80
2021/11/08 12:37:58;;;;;;;;;;;;;;;;;;5043628;28;19917;-80
2021/11/08 12:40:27;;;;;;;;;;;;;;;;;;5035793;28;19919;-81
2021/11/08 12:42:53;;;;;;;;;;;;;;;;;;5051446;28;19917;-81
2021/11/08 12:45:26;;;;;;;;;;;;;;;;;;5067212;28;19921;-80
2021/11/08 12:48:04;;;;;;;;;;;;;;;;;;5034307;28;19917;-81
2021/11/08 12:50:30;;;;;;;;;;;;;;;;;;5050705;28;19921;-80
2021/11/08 12:52:56;;;;;;;;;;;;;;;;;;5018563;28;19955;-80
2021/11/08 12:55:21;;;;;;;;;;;;;;;;;;5018818;28;20302;-81
2021/11/08 12:58:06;;;;;;;;;;;;;;;;;;5050930;28;20433;-81
2021/11/08 13:00:36;;;;;;;;;;;;;;;;;;5018940;28;19913;-80
2021/11/08 13:03:10;;;;;;;;;;;;;;;;;;5051749;28;19964;-80
2021/11/08 13:05:42;;;;;;;;;;;;;;;;;;5035694;28;19913;-81
2021/11/08 13:08:20;;;;;;;;;;;;;;;;;;5051597;28;19968;-81
2021/11/08 13:10:54;;;;;;;;;;;;;;;;;;5050764;28;19912;-80
2021/11/08 13:13:19;;;;;;;;;;;;;;;;;;5034326;28;20003;-81
2021/11/08 13:15:45;;;;;;;;;;;;;;;;;;5018203;28;19991;-81
2021/11/08 13:18:10;;;;;;;;;;;;;;;;;;5018174;28;19948;-81
2021/11/08 13:20:40;;;;;;;;;;;;;;;;;;5051162;28;19917;-81
2021/11/08 13:23:10;;;;;;;;;;;;;;;;;;5018369;28;20054;-81
2021/11/08 13:25:38;;;;;;;;;;;;;;;;;;5017906;28;19958;-80
2021/11/08 13:28:07;;;;;;;;;;;;;;;;;;5017118;28;19916;-81
2021/11/08 13:30:36;;;;;;;;;;;;;;;;;;5026944;28;19917;-81
2021/11/08 13:33:02;;;;;;;;;;;;;;;;;;5032584;28;19913;-81
2021/11/08 13:35:27;;;;;;;;;;;;;;;;;;5030802;28;19927;-81
2021/11/08 13:38:03;;;;;;;;;;;;;;;;;;5017918;28;19921;-81
2021/11/08 13:40:29;;;;;;;;;;;;;;;;;;5034141;28;19917;-81
2021/11/08 13:43:04;;;;;;;;;;;;;;;;;;5033471;28;19916;-81
2021/11/08 13:45:29;;;;;;;;;;;;;;;;;;5014785;28;20347;-81
2021/11/08 13:47:54;;;;;;;;;;;;;;;;;;5034354;28;20019;-81
2021/11/08 13:50:20;;;;;;;;;;;;;;;;;;5017518;28;19916;-81
2021/11/08 13:52:46;;;;;;;;;;;;;;;;;;5034195;28;19962;-81
2021/11/08 13:55:12;;;;;;;;;;;;;;;;;;5051052;28;20374;-81
2021/11/08 13:57:39;;;;;;;;;;;;;;;;;;5033333;28;19917;-81
2021/11/08 14:00:06;;;;;;;;;;;;;;;;;;5014479;28;19924;-81
2021/11/08 14:02:33;;;;;;;;;;;;;;;;;;5024897;28;19917;-81
2021/11/08 14:05:00;;;;;;;;;;;;;;;;;;5019957;28;19968;-81
2021/11/08 14:07:26;;;;;;;;;;;;;;;;;;5045230;28;20277;-81
2021/11/08 14:09:54;;;;;;;;;;;;;;;;;;5052320;28;19917;-81
2021/11/08 14:12:21;;;;;;;;;;;;;;;;;;5047225;28;20297;-80
2021/11/08 14:14:50;;;;;;;;;;;;;;;;;;5037193;28;19919;-79
2021/11/08 14:17:17;;;;;;;;;;;;;;;;;;5053443;28;19948;-80
2021/11/08 14:19:43;;;;;;;;;;;;;;;;;;5033683;28;19917;-79
2021/11/08 14:22:08;;;;;;;;;;;;;;;;;;5054308;28;19916;-80
2021/11/08 14:25:02;;;;;;;;;;;;;;;;;;5054885;28;19916;-80
2021/11/08 14:27:29;;;;;;;;;;;;;;;;;;5054167;28;19942;-80
2021/11/08 14:29:56;;;;;;;;;;;;;;;;;;5055028;28;19920;-79
2021/11/08 14:32:22;;;;;;;;;;;;;;;;;;5053961;28;19916;-80
2021/11/08 14:34:56;;;;;;;;;;;;;;;;;;5021269;28;20516;-81
2021/11/08 14:37:27;;;;;;;;;;;;;;;;;;5038527;28;19970;-80
2021/11/08 14:39:53;;;;;;;;;;;;;;;;;;5052333;28;19995;-80
2021/11/08 14:42:19;;;;;;;;;;;;;;;;;;5035536;28;20398;-80
2021/11/08 14:44:55;;;;;;;;;;;;;;;;;;5020945;28;19917;-80
2021/11/08 14:47:21;;;;;;;;;;;;;;;;;;5027440;28;19912;-80
2021/11/08 14:49:56;;;;;;;;;;;;;;;;;;5053732;28;19920;-80
2021/11/08 14:52:31;;;;;;;;;;;;;;;;;;5037540;28;19917;-81
2021/11/08 14:54:56;;;;;;;;;;;;;;;;;;5043459;28;20382;-80
2021/11/08 14:57:23;;;;;;;;;;;;;;;;;;5059426;28;19920;-80
2021/11/08 14:59:51;;;;;;;;;;;;;;;;;;5034010;28;19917;-79
2021/11/08 15:02:17;;;;;;;;;;;;;;;;;;5060922;28;19924;-80
2021/11/08 15:05:00;;;;;;;;;;;;;;;;;;5037042;28;19912;-80
2021/11/08 15:07:29;;;;;;;;;;;;;;;;;;5037013;28;19956;-80
2021/11/08 15:09:55;;;;;;;;;;;;;;;;;;5053283;28;19921;-80
2021/11/08 15:12:24;;;;;;;;;;;;;;;;;;5053622;28;20397;-80
2021/11/08 15:14:53;;;;;;;;;;;;;;;;;;5036905;28;19967;-81
2021/11/08 15:17:29;;;;;;;;;;;;;;;;;;5052070;28;19943;-80
2021/11/08 15:20:00;;;;;;;;;;;;;;;;;;5056345;28;19921;-80
2021/11/08 15:22:29;;;;;;;;;;;;;;;;;;5065666;28;19974;-81
2021/11/08 15:24:54;;;;;;;;;;;;;;;;;;5016092;28;19999;-80
2021/11/08 15:27:28;;;;;;;;;;;;;;;;;;5019354;28;20007;-80
2021/11/08 15:30:01;;;;;;;;;;;;;;;;;;5052676;28;19921;-80
2021/11/08 15:32:27;;;;;;;;;;;;;;;;;;5052280;28;19960;-79
2021/11/08 15:34:52;;;;;;;;;;;;;;;;;;5016302;28;20002;-80
2021/11/08 15:37:21;;;;;;;;;;;;;;;;;;5033068;28;20052;-81
2021/11/08 15:39:46;;;;;;;;;;;;;;;;;;5032055;28;19948;-80
2021/11/08 15:42:12;;;;;;;;;;;;;;;;;;5043486;28;19992;-80
2021/11/08 15:44:37;;;;;;;;;;;;;;;;;;5034071;28;20059;-80
2021/11/08 15:47:03;;;;;;;;;;;;;;;;;;5014954;28;20283;-80
2021/11/08 15:49:28;;;;;;;;;;;;;;;;;;5050941;28;19921;-81
2021/11/08 15:51:54;;;;;;;;;;;;;;;;;;5037665;28;19972;-80
2021/11/08 15:54:24;;;;;;;;;;;;;;;;;;5053047;28;19913;-80
2021/11/08 15:56:55;;;;;;;;;;;;;;;;;;5035846;28;20317;-80
2021/11/08 15:59:20;;;;;;;;;;;;;;;;;;5036213;28;19913;-80
2021/11/08 16:01:46;;;;;;;;;;;;;;;;;;5018751;28;19924;-81
2021/11/08 16:04:11;;;;;;;;;;;;;;;;;;5034772;28;19923;-80
2021/11/08 16:06:37;;;;;;;;;;;;;;;;;;5033873;28;20170;-80
2021/11/08 16:09:02;;;;;;;;;;;;;;;;;;5030135;28;20008;-80
2021/11/08 16:11:28;;;;;;;;;;;;;;;;;;5052032;28;19923;-81
2021/11/08 16:13:53;;;;;;;;;;;;;;;;;;5018904;28;20011;-81
2021/11/08 16:16:19;;;;;;;;;;;;;;;;;;5032122;28;19921;-81
2021/11/08 16:18:46;;;;;;;;;;;;;;;;;;5032482;28;19913;-81
2021/11/08 16:21:12;;;;;;;;;;;;;;;;;;5008891;28;19935;-83
2021/11/08 16:23:37;;;;;;;;;;;;;;;;;;5009899;28;19921;-82
2021/11/08 16:26:02;;;;;;;;;;;;;;;;;;5032656;28;19913;-81
2021/11/08 16:28:29;;;;;;;;;;;;;;;;;;5048651;28;19952;-83
2021/11/08 16:30:56;;;;;;;;;;;;;;;;;;5034383;28;19967;-82
2021/11/08 16:33:24;;;;;;;;;;;;;;;;;;5051469;28;19917;-82
2021/11/08 16:35:49;;;;;;;;;;;;;;;;;;5034496;28;19928;-82
2021/11/08 16:38:16;;;;;;;;;;;;;;;;;;5052122;28;19912;-82
2021/11/08 16:40:42;;;;;;;;;;;;;;;;;;5051522;28;19998;-82
2021/11/08 16:43:25;;;;;;;;;;;;;;;;;;5018211;28;19963;-82
2021/11/08 16:46:01;;;;;;;;;;;;;;;;;;5036346;28;20286;-83
2021/11/08 16:48:28;;;;;;;;;;;;;;;;;;5050969;28;19923;-81
2021/11/08 16:50:53;;;;;;;;;;;;;;;;;;5050626;28;19923;-82
2021/11/08 16:53:19;;;;;;;;;;;;;;;;;;5026790;28;19925;-81
2021/11/08 16:55:45;;;;;;;;;;;;;;;;;;5048348;28;19917;-82
2021/11/08 16:58:14;;;;;;;;;;;;;;;;;;5050707;28;19917;-82
2021/11/08 17:00:40;;;;;;;;;;;;;;;;;;5051415;28;20375;-82
2021/11/08 17:03:06;;;;;;;;;;;;;;;;;;5034564;28;19917;-83
2021/11/08 17:05:44;;;;;;;;;;;;;;;;;;5018004;28;19913;-82
2021/11/08 17:08:14;;;;;;;;;;;;;;;;;;5051751;28;19962;-82
2021/11/08 17:10:46;;;;;;;;;;;;;;;;;;5034633;28;20426;-81
2021/11/08 17:13:16;;;;;;;;;;;;;;;;;;5034606;28;19912;-81
2021/11/08 17:15:41;;;;;;;;;;;;;;;;;;5033379;28;19962;-82
2021/11/08 17:18:07;;;;;;;;;;;;;;;;;;5018123;28;19978;-82
2021/11/08 17:20:33;;;;;;;;;;;;;;;;;;5017566;28;19923;-82
2021/11/08 17:22:58;;;;;;;;;;;;;;;;;;5034718;28;19916;-81
2021/11/08 17:25:24;;;;;;;;;;;;;;;;;;5051013;28;19942;-81
2021/11/08 17:27:51;;;;;;;;;;;;;;;;;;5049916;28;20012;-81
2021/11/08 17:30:17;;;;;;;;;;;;;;;;;;5051108;28;19959;-81
2021/11/08 17:32:42;;;;;;;;;;;;;;;;;;5051153;28;19912;-81
2021/11/08 17:35:08;;;;;;;;;;;;;;;;;;5034105;28;20432;-81
2021/11/08 17:37:34;;;;;;;;;;;;;;;;;;5017924;28;19916;-81
2021/11/08 17:40:00;;;;;;;;;;;;;;;;;;5034125;28;19924;-81
2021/11/08 17:42:27;;;;;;;;;;;;;;;;;;5050706;28;20291;-90
2021/11/08 17:44:54;;;;;;;;;;;;;;;;;;5052065;28;20370;-85
2021/11/08 17:47:24;;;;;;;;;;;;;;;;;;5019290;28;19932;-90
2021/11/08 17:49:50;;;;;;;;;;;;;;;;;;5035252;28;19916;-91
2021/11/08 17:52:19;;;;;;;;;;;;;;;;;;5019103;28;20386;-89
2021/11/08 17:54:45;;;;;;;;;;;;;;;;;;5018979;28;20395;-84
2021/11/08 17:57:10;;;;;;;;;;;;;;;;;;5024501;28;19920;-85
2021/11/08 17:59:38;;;;;;;;;;;;;;;;;;5041126;28;19912;-85
2021/11/08 18:02:04;;;;;;;;;;;;;;;;;;5041033;28;19916;-85
2021/11/08 18:04:30;;;;;;;;;;;;;;;;;;5041003;28;20371;-85
2021/11/08 18:06:57;;;;;;;;;;;;;;;;;;5041419;28;19912;-89
2021/11/08 18:09:23;;;;;;;;;;;;;;;;;;5016735;28;20011;-88
2021/11/08 18:11:50;;;;;;;;;;;;;;;;;;5025232;28;20011;-89
2021/11/08 18:14:19;;;;;;;;;;;;;;;;;;5057901;28;19921;-89
2021/11/08 18:16:47;;;;;;;;;;;;;;;;;;5057748;28;20440;-89
2021/11/08 18:19:12;;;;;;;;;;;;;;;;;;5057831;28;20004;-86
2021/11/08 18:21:54;;;;;;;;;;;;;;;;;;5057893;28;20019;-89
2021/11/08 18:27:01;;;;;;;;;;;;;;;;;;5057843;28;20317;-88
2021/11/08 18:29:32;;;;;;;;;;;;;;;;;;5027041;28;20394;-89
2021/11/08 18:31:58;;;;;;;;;;;;;;;;;;5041382;28;20019;-91
2021/11/08 18:34:26;;;;;;;;;;;;;;;;;;5025368;28;19925;-89
2021/11/08 18:36:58;;;;;;;;;;;;;;;;;;5025470;28;19913;-89
2021/11/08 18:39:24;;;;;;;;;;;;;;;;;;5041693;28;19939;-89
2021/11/08 18:41:53;;;;;;;;;;;;;;;;;;5038072;28;20324;-89
2021/11/08 18:44:20;;;;;;;;;;;;;;;;;;5078101;28;20436;-89
2021/11/08 18:46:48;;;;;;;;;;;;;;;;;;5061365;28;19963;-89